Fortaleza, Brasil

04:07 PM BRT em 22 de Julho de 2014 (GMT -0300)
Pinto Martins International (SBFZ) Elev 82 ft | 3.78 °S, 38.53 °W | Change Station

Current weather conditions updated 7 minutes ago

Mostly Cloudy
Muito Nublado
82 °F
Aparente 85 °F
N
15
Vento Variável Vento de ENE

Amanhã prevê-se estar uma temperatura similar à de hoje.

Hoje
Máxima -- | Mínima -- °F
--% Possibilidade de Precip.
Ontem
Máxima -- | Mínima -- °F
Precip. -- pol
5:42 AM 5:38 PM
Quarto minguante, 15% visible
Pressão 29.95 pol
Visibilidade 6.2 milhas
Nuvens Nuvens Dispersas 2500 ft
Muito Nublado 7000 ft
Índice de Calor 85 °F
Ponto de Orvalho 66 °F
Humidade 58%
Chuva 0.00 pol
Altura de Neve Não disponível
UV 1 em vez de 12
Pólen Não disponível
Qualidade do Ar Não disponível
Flu Activity Não disponível
METAR SBFZ 221900Z 06013KT 9999 SCT025 BKN070 28/19 Q1014

More Conditions Fewer Conditions

Pressão 29.95 pol
Visibilidade 6.2 milhas
Nuvens Nuvens Dispersas 2500 ft
Muito Nublado 7000 ft
Índice de Calor 85 °F
Ponto de Orvalho 66 °F
Humidade 58%
Chuva 0.00 pol
Altura de Neve Não disponível
UV 1 em vez de 12
Pólen Não disponível
Qualidade do Ar Não disponível
Flu Activity Não disponível
METAR SBFZ 221900Z 06013KT 9999 SCT025 BKN070 28/19 Q1014

More Conditions Fewer Conditions

10-Day Weather Forecast

Almanac

Astronomia

Jul. 22, 2014 Nascer Pôr
Hora atual 05:42 BRT 17:38 BRT
Crepúsculo civil 05:20 BRT 18:00 BRT
Crepúsculo náutico 04:54 BRT 18:26 BRT
Crepúsculo astronómico 04:29 BRT 18:51 BRT
Lua 02:00 BRT 14:14 BRT
Comprimento da luz visível 12h 40m
Duração do Dia
11h 55m
Tomorrow will be 0m 7s longer.
Quarto minguante, 15% of the Moon is Illuminated
Hoje
Quarto minguante
Jul 26
Nova
Ago 3
Quarto crescente
Ago 10
Lua cheia
Ago 17
Quarto minguante

Extremos de Hoje

Altitude na localidade Altura mais baixa na localidade

Community

WunderPhotos

Upload Photos

1,736,333 fotografias inseridas!

Nearby

Actividade Sísmisca

Cidade Distância Mag. Hora & Data
Não há notícias de atividade sísmica recente perto de si.
Mínima magnitude apresentada é 2.5.

Temperaturas das Águas Costeiras

Local Temperatura
Não há estações a reportar dados

Estações Meteorológicas Próximas

Localização da Estação Temp. Índice de Calor Ponto de Orvalho Humidade Vento Precip. Elev Actualizado Tipo
Cumbuco, Cumbuco/Caucaia 80.5 °F 85 °F 73 °F 78% ESE  a  16.0 mph 0.00 pol / hr 30 ft 4:03 PM BRT Normal

Show More Stations Show Fewer Stations